createdAt,value
2019-04-06T00:02:22.232Z,10.17
2019-04-06T00:04:51.613Z,14.40
2019-04-06T00:07:20.986Z,15.73
2019-04-06T00:09:50.363Z,16.80
2019-04-06T00:12:19.664Z,15.67
2019-04-06T00:14:49.004Z,10.53
2019-04-06T00:17:18.390Z,14.40
2019-04-06T00:19:47.847Z,15.13
2019-04-06T00:22:17.160Z,13.37
2019-04-06T00:24:46.437Z,13.53
2019-04-06T00:27:15.733Z,14.33
2019-04-06T00:29:45.028Z,15.03
2019-04-06T00:32:27.641Z,14.47
2019-04-06T00:34:57.037Z,13.90
2019-04-06T00:37:26.350Z,11.30
2019-04-06T00:39:55.685Z,9.73
2019-04-06T00:42:24.999Z,14.07
2019-04-06T00:44:54.354Z,13.03
2019-04-06T00:47:24.198Z,10.97
2019-04-06T00:49:53.588Z,13.83
2019-04-06T00:52:23.235Z,15.07
2019-04-06T00:54:52.644Z,13.97
2019-04-06T00:57:21.951Z,14.47
2019-04-06T00:59:51.257Z,10.87
2019-04-06T01:02:20.528Z,13.67
2019-04-06T01:04:49.755Z,14.70
2019-04-06T01:07:19.037Z,14.53
2019-04-06T01:09:48.487Z,14.40
2019-04-06T01:12:17.891Z,14.40
2019-04-06T01:14:47.397Z,14.47
2019-04-06T01:17:16.681Z,11.90
2019-04-06T01:19:45.973Z,15.97
2019-04-06T01:22:15.276Z,14.70
2019-04-06T01:24:44.583Z,14.67
2019-04-06T01:27:13.873Z,12.77
2019-04-06T01:29:43.180Z,15.60
2019-04-06T01:32:12.467Z,16.63
2019-04-06T01:34:41.722Z,17.23
2019-04-06T01:37:11.355Z,17.83
2019-04-06T01:39:40.705Z,15.93
2019-04-06T01:42:10.038Z,17.03
2019-04-06T01:44:39.441Z,16.80
2019-04-06T01:47:08.741Z,17.80
2019-04-06T01:49:38.035Z,17.23
2019-04-06T01:52:07.698Z,17.93
2019-04-06T01:54:36.951Z,14.60
2019-04-06T01:57:06.277Z,13.53
2019-04-06T01:59:35.573Z,11.40
2019-04-06T02:02:12.624Z,11.87
2019-04-06T02:04:41.997Z,16.20
2019-04-06T02:07:11.418Z,13.07
2019-04-06T02:09:40.910Z,13.67
2019-04-06T02:12:10.171Z,16.67
2019-04-06T02:14:39.483Z,16.30
2019-04-06T02:17:08.793Z,15.67
2019-04-06T02:19:38.109Z,15.57
2019-04-06T02:22:07.415Z,17.00
2019-04-06T02:24:36.693Z,17.50
2019-04-06T02:27:06.114Z,16.00
2019-04-06T02:29:35.577Z,18.13
2019-04-06T02:32:32.731Z,17.20
2019-04-06T02:35:30.385Z,17.30
2019-04-06T02:38:17.380Z,18.43
2019-04-06T02:41:10.165Z,15.33
2019-04-06T02:43:39.542Z,12.03
2019-04-06T02:46:08.788Z,11.40
2019-04-06T02:48:38.212Z,11.13
2019-04-06T02:51:07.396Z,9.83
2019-04-06T02:53:36.672Z,13.03
2019-04-06T02:56:05.924Z,14.87
2019-04-06T02:58:35.277Z,14.70
2019-04-06T03:01:04.560Z,10.57
2019-04-06T03:03:33.928Z,12.63
2019-04-06T03:06:03.256Z,14.67
2019-04-06T03:08:32.670Z,13.27
2019-04-06T03:11:01.901Z,14.83
2019-04-06T03:13:31.073Z,13.17
2019-04-06T03:16:00.347Z,10.20
2019-04-06T03:18:29.607Z,10.70
2019-04-06T03:20:58.915Z,13.40
2019-04-06T03:23:28.249Z,10.30
2019-04-06T03:25:57.613Z,10.60
2019-04-06T03:28:26.889Z,12.13
2019-04-06T03:30:56.825Z,14.83
2019-04-06T03:33:26.105Z,15.20
2019-04-06T03:35:55.612Z,14.63
2019-04-06T03:38:24.940Z,10.87
2019-04-06T03:40:54.432Z,15.07
2019-04-06T03:43:23.742Z,14.77
2019-04-06T03:45:53.013Z,12.30
2019-04-06T03:48:22.329Z,13.20
2019-04-06T03:50:51.619Z,14.70
2019-04-06T03:53:20.880Z,14.47
2019-04-06T03:55:50.189Z,15.83
2019-04-06T03:58:19.492Z,17.07
2019-04-06T04:00:49.090Z,15.60
2019-04-06T04:03:18.440Z,12.80
2019-04-06T04:05:47.694Z,14.83
2019-04-06T04:08:17.024Z,13.07
2019-04-06T04:10:47.851Z,12.50
2019-04-06T04:13:17.410Z,10.03
2019-04-06T04:15:46.662Z,15.20
2019-04-06T04:18:15.985Z,15.17
2019-04-06T04:20:45.398Z,15.03
2019-04-06T04:23:14.670Z,15.17
2019-04-06T04:25:44.534Z,16.10
2019-04-06T04:28:13.846Z,17.60
2019-04-06T04:30:43.068Z,15.43
2019-04-06T04:33:12.397Z,16.23
2019-04-06T04:35:41.624Z,16.50
2019-04-06T04:38:11.067Z,16.20
2019-04-06T04:40:40.574Z,16.97
2019-04-06T04:43:09.773Z,14.80
2019-04-06T04:45:39.052Z,12.33
2019-04-06T04:48:08.381Z,15.97
2019-04-06T04:50:37.753Z,13.30
2019-04-06T04:53:07.062Z,14.77
2019-04-06T04:55:36.994Z,12.67
2019-04-06T04:58:06.172Z,12.30
2019-04-06T05:00:35.446Z,14.60
2019-04-06T05:03:04.712Z,14.33
2019-04-06T05:05:34.074Z,12.30
2019-04-06T05:08:03.324Z,15.90
2019-04-06T05:10:32.592Z,18.43
2019-04-06T05:13:01.900Z,18.73
2019-04-06T05:16:21.722Z,19.23
2019-04-06T05:18:50.938Z,18.67
2019-04-06T05:21:20.183Z,19.83
2019-04-06T05:23:49.395Z,16.80
2019-04-06T05:26:18.576Z,17.33
2019-04-06T05:28:47.745Z,17.97
2019-04-06T05:31:17.026Z,13.77
2019-04-06T05:33:46.332Z,13.23
2019-04-06T05:36:15.669Z,16.50
2019-04-06T05:38:44.961Z,17.60
2019-04-06T05:41:14.282Z,12.47
2019-04-06T05:43:43.757Z,15.43
2019-04-06T05:46:12.971Z,13.13
2019-04-06T05:48:42.284Z,12.47
2019-04-06T05:51:11.517Z,11.23
2019-04-06T05:53:40.925Z,11.47
2019-04-06T05:56:10.348Z,9.80
2019-04-06T05:58:40.635Z,11.03
2019-04-06T06:01:11.358Z,11.77
2019-04-06T06:03:41.484Z,10.80
2019-04-06T06:06:12.578Z,9.47
2019-04-06T06:08:41.908Z,17.93
2019-04-06T06:11:11.332Z,18.40
2019-04-06T06:13:40.659Z,20.40
2019-04-06T06:16:11.779Z,15.93
2019-04-06T06:18:40.975Z,22.13
2019-04-06T06:21:10.293Z,22.97
2019-04-06T06:23:39.633Z,24.13
2019-04-06T06:26:08.893Z,23.13
2019-04-06T06:28:38.269Z,22.33
2019-04-06T06:31:07.696Z,22.70
2019-04-06T06:33:37.105Z,21.13
2019-04-06T06:36:06.376Z,20.90
2019-04-06T06:38:35.866Z,22.60
2019-04-06T06:41:05.409Z,22.83
2019-04-06T06:43:34.859Z,21.53
2019-04-06T06:46:04.185Z,21.17
2019-04-06T06:48:33.383Z,22.07
2019-04-06T06:51:02.649Z,21.43
2019-04-06T06:53:31.950Z,21.30
2019-04-06T06:56:01.257Z,22.70
2019-04-06T06:58:30.584Z,18.97
2019-04-06T07:00:59.948Z,21.03
2019-04-06T07:03:29.519Z,22.23
2019-04-06T07:05:58.972Z,20.10
2019-04-06T07:08:28.306Z,21.87
2019-04-06T07:10:57.613Z,22.23
2019-04-06T07:13:26.973Z,22.47
2019-04-06T07:15:56.183Z,21.80
2019-04-06T07:18:25.493Z,21.00
2019-04-06T07:20:55.133Z,22.27
2019-04-06T07:23:24.573Z,23.03
2019-04-06T07:25:58.703Z,23.07
2019-04-06T07:28:36.374Z,18.47
2019-04-06T07:30:56.476Z,16.90
2019-04-06T07:33:25.943Z,21.63
2019-04-06T07:35:55.460Z,22.77
2019-04-06T07:38:24.770Z,23.27
2019-04-06T07:40:54.103Z,23.47
2019-04-06T07:44:42.402Z,23.07
2019-04-06T07:56:32.171Z,22.50
2019-04-06T07:59:01.597Z,22.30
2019-04-06T08:01:31.273Z,18.00
2019-04-06T08:04:00.657Z,15.87
2019-04-06T08:06:30.001Z,24.50
2019-04-06T08:08:59.548Z,25.00
2019-04-06T08:11:29.113Z,22.20
2019-04-06T08:13:58.526Z,22.63
2019-04-06T08:16:28.189Z,20.27
2019-04-06T08:18:57.486Z,20.90
2019-04-06T08:21:26.851Z,23.13
2019-04-06T08:23:56.235Z,23.90
2019-04-06T08:26:25.567Z,23.13
2019-04-06T08:29:01.865Z,25.57
2019-04-06T08:31:25.918Z,24.47
2019-04-06T08:33:55.192Z,24.47
2019-04-06T08:36:24.464Z,25.00
2019-04-06T08:38:53.897Z,21.00
2019-04-06T08:41:23.356Z,21.80
2019-04-06T08:43:52.651Z,25.80
2019-04-06T08:46:21.967Z,24.67
2019-04-06T08:48:51.283Z,27.30
2019-04-06T08:51:20.742Z,22.37
2019-04-06T08:53:50.149Z,21.10
2019-04-06T08:56:19.847Z,25.17
2019-04-06T08:58:49.252Z,26.20
2019-04-06T09:01:18.524Z,26.10
2019-04-06T09:03:47.830Z,22.17
2019-04-06T09:06:17.413Z,26.17
2019-04-06T09:08:46.715Z,26.77
2019-04-06T09:11:16.023Z,23.60
2019-04-06T09:13:45.331Z,27.23
2019-04-06T09:16:14.630Z,27.23
2019-04-06T09:18:44.015Z,25.97
2019-04-06T09:21:13.340Z,26.83
2019-04-06T09:23:42.693Z,23.23
2019-04-06T09:26:12.205Z,27.53
2019-04-06T09:28:41.606Z,26.53
2019-04-06T09:31:10.905Z,26.57
2019-04-06T09:33:40.201Z,26.50
2019-04-06T09:36:09.509Z,25.00
2019-04-06T09:38:38.786Z,26.37
2019-04-06T09:41:08.180Z,24.03
2019-04-06T09:43:37.666Z,28.43
2019-04-06T09:46:29.265Z,27.57
2019-04-06T09:49:26.536Z,29.07
2019-04-06T09:52:13.888Z,24.70
2019-04-06T09:55:02.170Z,27.30
2019-04-06T09:57:53.682Z,27.77
2019-04-06T10:00:47.966Z,27.10
2019-04-06T10:03:32.650Z,27.70
2019-04-06T10:06:12.897Z,27.37
2019-04-06T10:09:07.502Z,28.33
2019-04-06T10:11:45.360Z,29.03
2019-04-06T10:14:32.109Z,26.83
2019-04-06T10:17:23.188Z,28.77
2019-04-06T10:20:23.922Z,27.83
2019-04-06T10:23:16.164Z,28.93
2019-04-06T10:25:56.197Z,28.33
2019-04-06T10:28:43.291Z,27.07
2019-04-06T10:31:29.459Z,26.57
2019-04-06T10:34:17.096Z,28.30
2019-04-06T10:37:08.188Z,27.93
2019-04-06T10:39:45.083Z,27.63
2019-04-06T10:42:32.230Z,27.63
2019-04-06T10:45:26.431Z,28.50
2019-04-06T10:48:03.476Z,27.13
2019-04-06T10:50:50.435Z,28.17
2019-04-06T10:53:38.090Z,29.90
2019-04-06T10:56:18.841Z,27.87
2019-04-06T10:59:12.890Z,28.67
2019-04-06T11:02:04.269Z,25.27
2019-04-06T11:04:47.123Z,26.73
2019-04-06T11:07:24.397Z,27.97
2019-04-06T11:10:06.883Z,27.30
2019-04-06T11:13:00.989Z,27.03
2019-04-06T11:15:52.408Z,27.00
2019-04-06T11:18:50.062Z,26.27
2019-04-06T11:21:38.451Z,28.47
2019-04-06T11:24:35.857Z,22.60
2019-04-06T11:27:36.573Z,17.83
2019-04-06T11:30:16.362Z,16.73
2019-04-06T11:33:07.608Z,16.13
2019-04-06T11:35:54.412Z,11.00
2019-04-06T11:38:34.225Z,15.73
2019-04-06T11:41:28.308Z,14.13
2019-04-06T11:44:18.809Z,15.83
2019-04-06T11:47:05.996Z,14.10
2019-04-06T11:50:00.353Z,13.90
2019-04-06T11:52:45.977Z,14.47
2019-04-06T11:55:32.657Z,14.20
2019-04-06T11:58:26.988Z,15.13
2019-04-06T12:01:21.104Z,14.73
2019-04-06T12:04:27.707Z,15.90
2019-04-06T12:07:28.216Z,15.30
2019-04-06T12:10:31.543Z,17.00
2019-04-06T12:13:19.364Z,16.37
2019-04-06T12:16:07.956Z,17.83
2019-04-06T12:18:59.296Z,16.80
2019-04-06T12:21:40.521Z,14.00
2019-04-06T12:24:27.457Z,17.60
2019-04-06T12:27:22.350Z,17.23
2019-04-06T12:30:16.608Z,17.30
2019-04-06T12:33:14.056Z,17.13
2019-04-06T12:35:55.992Z,16.20
2019-04-06T12:38:34.103Z,16.47
2019-04-06T12:41:22.685Z,15.90
2019-04-06T12:44:09.802Z,14.27
2019-04-06T12:47:00.354Z,14.93
2019-04-06T12:49:47.224Z,17.63
2019-04-06T12:52:23.277Z,11.73
2019-04-06T12:55:07.365Z,16.43
2019-04-06T12:57:54.125Z,14.83
2019-04-06T13:00:52.782Z,10.60
2019-04-06T13:03:27.657Z,13.20
2019-04-06T13:06:03.594Z,14.17
2019-04-06T13:08:58.333Z,12.70
2019-04-06T13:11:58.416Z,11.07
2019-04-06T13:14:55.713Z,10.13
2019-04-06T13:17:49.000Z,13.30
2019-04-06T13:20:37.632Z,12.80
2019-04-06T13:23:24.204Z,11.63
2019-04-06T13:26:04.587Z,12.03
2019-04-06T13:29:08.406Z,11.47
2019-04-06T13:31:56.694Z,12.17
2019-04-06T13:34:33.887Z,12.67
2019-04-06T13:37:24.950Z,11.40
2019-04-06T13:40:13.218Z,11.53
2019-04-06T13:43:13.905Z,11.13
2019-04-06T13:46:05.835Z,12.10
2019-04-06T13:48:48.327Z,11.83
2019-04-06T13:51:28.596Z,12.23
2019-04-06T13:54:19.902Z,11.50
2019-04-06T13:57:08.164Z,12.90
2019-04-06T13:59:49.127Z,12.13
2019-04-06T14:02:28.502Z,10.97
2019-04-06T14:05:05.118Z,12.23
2019-04-06T14:07:50.378Z,11.23
2019-04-06T14:10:30.282Z,12.13
2019-04-06T14:13:08.938Z,12.10
2019-04-06T14:16:09.404Z,12.27
2019-04-06T14:19:07.165Z,11.03
2019-04-06T14:21:53.947Z,10.23
2019-04-06T14:24:40.033Z,8.67
2019-04-06T14:27:16.236Z,10.63
2019-04-06T14:30:01.675Z,10.87
2019-04-06T14:32:59.192Z,10.50
2019-04-06T14:35:50.253Z,10.90
2019-04-06T14:38:36.935Z,11.80
2019-04-06T14:41:43.244Z,9.53
2019-04-06T14:44:32.860Z,11.57
2019-04-06T14:47:09.629Z,11.53
2019-04-06T14:49:51.047Z,11.67
2019-04-06T14:52:31.884Z,11.10
2019-04-06T14:55:16.764Z,10.93
2019-04-06T14:58:11.450Z,10.80
2019-04-06T15:01:03.076Z,11.30
2019-04-06T15:04:00.110Z,9.73
2019-04-06T15:06:41.981Z,11.17
2019-04-06T15:09:28.971Z,10.10
2019-04-06T15:12:17.244Z,10.23
2019-04-06T15:15:11.760Z,10.07
2019-04-06T15:18:09.529Z,9.30
2019-04-06T15:20:53.990Z,10.77
2019-04-06T15:23:40.120Z,10.07
2019-04-06T15:26:20.710Z,11.37
2019-04-06T15:29:08.054Z,9.33
2019-04-06T15:31:56.487Z,9.80
2019-04-06T15:34:40.878Z,10.70
2019-04-06T15:37:32.058Z,9.20
2019-04-06T15:40:18.799Z,10.73
2019-04-06T15:42:57.511Z,8.90
2019-04-06T15:45:44.373Z,10.60
2019-04-06T15:48:36.484Z,10.40
2019-04-06T15:51:06.495Z,9.87
2019-04-06T15:53:42.727Z,10.03
2019-04-06T15:56:17.150Z,7.70
2019-04-06T15:59:05.567Z,9.13
2019-04-06T16:01:47.336Z,7.73
2019-04-06T16:04:41.454Z,9.60
2019-04-06T16:07:32.484Z,7.60
2019-04-06T16:10:21.135Z,9.87
2019-04-06T16:13:07.040Z,7.10
2019-04-06T16:15:43.099Z,9.87
2019-04-06T16:18:40.156Z,10.40
2019-04-06T16:21:26.808Z,7.07
2019-04-06T16:24:15.046Z,7.33
2019-04-06T16:27:06.224Z,8.83
2019-04-06T16:30:03.728Z,6.13
2019-04-06T16:32:55.776Z,10.00
2019-04-06T16:35:50.111Z,9.63
2019-04-06T16:38:32.894Z,9.93
2019-04-06T16:41:23.350Z,10.00
2019-04-06T16:44:06.225Z,10.00
2019-04-06T16:46:54.735Z,9.33
2019-04-06T16:49:55.267Z,9.60
2019-04-06T16:52:41.913Z,10.07
2019-04-06T16:55:28.966Z,11.10
2019-04-06T16:58:20.444Z,10.67
2019-04-06T17:01:11.387Z,9.83
2019-04-06T17:04:00.349Z,10.03
2019-04-06T17:06:54.773Z,11.07
2019-04-06T17:09:43.266Z,12.67
2019-04-06T17:12:29.954Z,11.80
2019-04-06T17:15:21.281Z,12.87
2019-04-06T17:18:07.343Z,15.10
2019-04-06T17:20:57.082Z,14.00
2019-04-06T17:23:34.504Z,13.60
2019-04-06T17:26:31.655Z,14.77
2019-04-06T17:29:34.820Z,10.50
2019-04-06T17:32:11.104Z,11.80
2019-04-06T17:35:02.720Z,11.93
2019-04-06T17:37:54.311Z,12.23
2019-04-06T17:40:38.945Z,11.50
2019-04-06T17:43:42.088Z,10.77
2019-04-06T17:46:29.045Z,9.77
2019-04-06T17:49:29.668Z,12.83
2019-04-06T17:52:08.701Z,11.47
2019-04-06T17:55:03.031Z,8.03
2019-04-06T17:57:40.211Z,7.50
2019-04-06T18:00:26.307Z,9.97
2019-04-06T18:03:05.247Z,13.27
2019-04-06T18:05:52.194Z,14.43
2019-04-06T18:08:40.556Z,13.07
2019-04-06T18:11:22.582Z,12.40
2019-04-06T18:13:52.461Z,8.67
2019-04-06T18:16:24.463Z,8.03
2019-04-06T18:18:53.933Z,7.60
2019-04-06T18:21:23.594Z,8.83
2019-04-06T18:23:53.094Z,14.20
2019-04-06T18:26:22.463Z,14.73
2019-04-06T18:28:51.926Z,11.77
2019-04-06T18:31:31.721Z,9.30
2019-04-06T18:34:01.456Z,10.33
2019-04-06T18:36:46.089Z,10.00
2019-04-06T18:39:15.450Z,7.67
2019-04-06T18:41:44.797Z,11.90
2019-04-06T18:44:14.146Z,7.77
2019-04-06T18:46:43.853Z,9.47
2019-04-06T18:49:13.326Z,7.43
2019-04-06T18:51:42.724Z,8.10
2019-04-06T18:54:12.395Z,8.73
2019-04-06T18:56:41.770Z,11.40
2019-04-06T18:59:10.984Z,10.57
2019-04-06T19:01:40.418Z,11.73
2019-04-06T19:04:10.372Z,9.43
2019-04-06T19:06:39.858Z,9.00
2019-04-06T19:09:20.702Z,7.90
2019-04-06T19:11:44.476Z,14.57
2019-04-06T19:14:12.446Z,9.60
2019-04-06T19:16:42.156Z,12.17
2019-04-06T19:19:11.470Z,13.70
2019-04-06T19:21:40.961Z,10.47
2019-04-06T19:24:10.342Z,9.57
2019-04-06T19:26:40.091Z,9.63
2019-04-06T19:29:09.464Z,10.90
2019-04-06T19:31:38.711Z,10.77
2019-04-06T19:34:07.941Z,9.07
2019-04-06T19:36:37.861Z,8.73
2019-04-06T19:39:11.093Z,9.63
2019-04-06T19:41:40.722Z,10.40
2019-04-06T19:44:10.251Z,9.97
2019-04-06T19:46:39.729Z,7.90
2019-04-06T19:49:09.041Z,14.40
2019-04-06T19:51:38.563Z,12.13
2019-04-06T19:54:08.334Z,9.87
2019-04-06T19:56:37.695Z,20.37
2019-04-06T19:59:07.031Z,18.83
2019-04-06T20:01:36.405Z,15.23
2019-04-06T20:04:06.099Z,19.73
2019-04-06T20:06:35.518Z,21.03
2019-04-06T20:09:06.816Z,21.63
2019-04-06T20:11:36.377Z,19.50
2019-04-06T20:14:06.176Z,19.20
2019-04-06T20:16:35.696Z,18.97
2019-04-06T20:19:05.146Z,14.13
2019-04-06T20:21:34.685Z,12.43
2019-04-06T20:24:04.170Z,12.50
2019-04-06T20:26:33.525Z,11.77
2019-04-06T20:29:02.913Z,11.63
2019-04-06T20:31:32.379Z,11.07
2019-04-06T20:34:01.895Z,15.53
2019-04-06T20:36:31.620Z,13.67
2019-04-06T20:39:01.239Z,11.23
2019-04-06T20:41:30.613Z,11.53
2019-04-06T20:43:59.945Z,12.73
2019-04-06T20:46:29.780Z,9.67
2019-04-06T20:48:59.276Z,12.60
2019-04-06T20:51:29.126Z,17.43
2019-04-06T20:53:58.696Z,16.10
2019-04-06T20:56:28.292Z,14.37
2019-04-06T20:58:57.870Z,13.33
2019-04-06T21:01:27.681Z,11.77
2019-04-06T21:04:00.828Z,12.30
2019-04-06T21:06:28.415Z,11.77
2019-04-06T21:08:57.732Z,10.23
2019-04-06T21:11:27.045Z,14.20
2019-04-06T21:13:56.748Z,10.97
2019-04-06T21:16:26.563Z,14.90
2019-04-06T21:18:55.836Z,12.13
2019-04-06T21:21:25.891Z,9.53
2019-04-06T21:23:55.306Z,10.00
2019-04-06T21:26:24.735Z,11.90
2019-04-06T21:28:54.277Z,13.00
2019-04-06T21:31:24.164Z,15.67
2019-04-06T21:33:53.790Z,18.03
2019-04-06T21:36:23.132Z,18.67
2019-04-06T21:38:52.454Z,18.40
2019-04-06T21:41:21.861Z,22.40
2019-04-06T21:43:51.192Z,22.40
2019-04-06T21:46:20.582Z,15.47
2019-04-06T21:48:50.648Z,14.83
2019-04-06T21:51:20.284Z,12.27
2019-04-06T21:53:49.603Z,10.83
2019-04-06T21:56:19.149Z,13.07
2019-04-06T21:58:48.562Z,12.87
2019-04-06T22:01:19.553Z,14.43
2019-04-06T22:03:49.565Z,11.93
2019-04-06T22:06:19.375Z,20.60
2019-04-06T22:08:48.799Z,18.50
2019-04-06T22:11:18.555Z,11.87
2019-04-06T22:13:48.675Z,19.03
2019-04-06T22:16:18.778Z,18.23
2019-04-06T22:18:48.773Z,13.43
2019-04-06T22:21:18.153Z,16.93
2019-04-06T22:23:47.500Z,16.90
2019-04-06T22:26:17.125Z,13.03
2019-04-06T22:28:46.866Z,16.10
2019-04-06T22:31:16.472Z,11.97
2019-04-06T22:33:45.948Z,22.07
2019-04-06T22:36:15.232Z,15.83
2019-04-06T22:38:44.542Z,16.47
2019-04-06T22:41:14.048Z,20.63
2019-04-06T22:43:43.645Z,18.60
2019-04-06T22:46:13.561Z,18.53
2019-04-06T22:48:44.202Z,12.43
2019-04-06T22:51:13.866Z,12.63
2019-04-06T22:53:43.181Z,17.97
2019-04-06T22:56:12.652Z,15.00
2019-04-06T22:58:41.951Z,20.57
2019-04-06T23:01:13.445Z,22.23
2019-04-06T23:04:04.772Z,22.67
2019-04-06T23:06:38.085Z,22.20
2019-04-06T23:09:08.661Z,24.47
2019-04-06T23:11:38.374Z,23.03
2019-04-06T23:14:07.758Z,23.17
2019-04-06T23:16:37.131Z,21.63
2019-04-06T23:19:06.365Z,15.67
2019-04-06T23:21:36.176Z,15.17
2019-04-06T23:24:05.595Z,13.10
2019-04-06T23:26:34.923Z,15.53
2019-04-06T23:29:04.202Z,13.63
2019-04-06T23:31:33.535Z,23.77
2019-04-06T23:34:03.393Z,21.13
2019-04-06T23:36:32.985Z,23.53
2019-04-06T23:39:02.505Z,21.03
2019-04-06T23:41:32.269Z,17.80
2019-04-06T23:44:01.567Z,23.90
2019-04-06T23:46:30.932Z,22.87
2019-04-06T23:49:02.416Z,21.57
2019-04-06T23:51:31.418Z,21.93
2019-04-06T23:54:00.895Z,17.93
2019-04-06T23:56:30.161Z,14.93
2019-04-06T23:58:59.365Z,19.10
